sensor_id;sensor_type;location;lat;lon;timestamp;pressure;altitude;pressure_sealevel;temperature;humidity
23996;BME280;12207;50.076;8.848;2022-10-22T00:00:16;99695.28;;;13.85;100.00
23996;BME280;12207;50.076;8.848;2022-10-22T00:02:43;99696.09;;;13.84;100.00
23996;BME280;12207;50.076;8.848;2022-10-22T00:05:09;99709.06;;;13.89;100.00
23996;BME280;12207;50.076;8.848;2022-10-22T00:07:36;99711.13;;;14.01;100.00
23996;BME280;12207;50.076;8.848;2022-10-22T00:10:03;99708.69;;;14.05;100.00
23996;BME280;12207;50.076;8.848;2022-10-22T00:12:30;99705.13;;;14.00;100.00
23996;BME280;12207;50.076;8.848;2022-10-22T00:14:56;99699.91;;;13.97;100.00
23996;BME280;12207;50.076;8.848;2022-10-22T00:17:23;99687.91;;;13.96;100.00
23996;BME280;12207;50.076;8.848;2022-10-22T00:19:49;99675.81;;;13.92;100.00
23996;BME280;12207;50.076;8.848;2022-10-22T00:22:16;99674.16;;;13.94;100.00
23996;BME280;12207;50.076;8.848;2022-10-22T00:24:42;99675.03;;;13.95;100.00
23996;BME280;12207;50.076;8.848;2022-10-22T00:27:10;99678.88;;;14.09;100.00
23996;BME280;12207;50.076;8.848;2022-10-22T00:29:37;99682.56;;;14.19;100.00
23996;BME280;12207;50.076;8.848;2022-10-22T00:32:04;99679.13;;;14.18;100.00
23996;BME280;12207;50.076;8.848;2022-10-22T00:34:30;99683.22;;;14.11;100.00
23996;BME280;12207;50.076;8.848;2022-10-22T00:36:57;99676.91;;;14.00;100.00
23996;BME280;12207;50.076;8.848;2022-10-22T00:39:24;99680.06;;;13.91;100.00
23996;BME280;12207;50.076;8.848;2022-10-22T00:41:52;99674.81;;;13.87;100.00
23996;BME280;12207;50.076;8.848;2022-10-22T00:47:04;99671.56;;;13.93;100.00
23996;BME280;12207;50.076;8.848;2022-10-22T00:49:30;99668.94;;;13.91;100.00
23996;BME280;12207;50.076;8.848;2022-10-22T00:51:57;99670.56;;;13.89;100.00
23996;BME280;12207;50.076;8.848;2022-10-22T00:54:23;99667.94;;;13.86;100.00
23996;BME280;12207;50.076;8.848;2022-10-22T00:56:50;99661.91;;;13.84;100.00
23996;BME280;12207;50.076;8.848;2022-10-22T00:59:16;99655.91;;;13.83;100.00
23996;BME280;12207;50.076;8.848;2022-10-22T01:01:43;99655.00;;;13.83;100.00
23996;BME280;12207;50.076;8.848;2022-10-22T01:04:10;99660.88;;;13.79;100.00
23996;BME280;12207;50.076;8.848;2022-10-22T01:06:37;99666.06;;;13.80;100.00
23996;BME280;12207;50.076;8.848;2022-10-22T01:14:28;99667.66;;;13.77;100.00
23996;BME280;12207;50.076;8.848;2022-10-22T01:18:01;99670.22;;;13.77;100.00
23996;BME280;12207;50.076;8.848;2022-10-22T01:24:57;99675.44;;;13.80;100.00
23996;BME280;12207;50.076;8.848;2022-10-22T01:29:52;99678.41;;;13.92;100.00
23996;BME280;12207;50.076;8.848;2022-10-22T01:32:23;99678.19;;;13.86;100.00
23996;BME280;12207;50.076;8.848;2022-10-22T01:34:51;99677.38;;;13.87;100.00
23996;BME280;12207;50.076;8.848;2022-10-22T01:37:20;99679.09;;;13.86;100.00
23996;BME280;12207;50.076;8.848;2022-10-22T01:39:48;99668.94;;;13.91;100.00
23996;BME280;12207;50.076;8.848;2022-10-22T01:42:15;99668.66;;;13.82;100.00
23996;BME280;12207;50.076;8.848;2022-10-22T01:44:42;99668.94;;;13.91;100.00
23996;BME280;12207;50.076;8.848;2022-10-22T01:54:44;99675.81;;;13.92;100.00
23996;BME280;12207;50.076;8.848;2022-10-22T01:59:57;99682.50;;;13.87;100.00
23996;BME280;12207;50.076;8.848;2022-10-22T02:02:48;99685.88;;;13.86;100.00
23996;BME280;12207;50.076;8.848;2022-10-22T02:05:13;99700.03;;;13.73;100.00
23996;BME280;12207;50.076;8.848;2022-10-22T02:07:46;99693.38;;;13.78;100.00
23996;BME280;12207;50.076;8.848;2022-10-22T02:10:14;99691.75;;;13.82;100.00
23996;BME280;12207;50.076;8.848;2022-10-22T02:12:42;99703.66;;;13.80;100.00
23996;BME280;12207;50.076;8.848;2022-10-22T02:15:11;99704.94;;;13.94;100.00
23996;BME280;12207;50.076;8.848;2022-10-22T02:17:38;99705.97;;;13.99;100.00
23996;BME280;12207;50.076;8.848;2022-10-22T02:20:41;99703.72;;;14.10;100.00
23996;BME280;12207;50.076;8.848;2022-10-22T02:23:00;99692.72;;;14.16;100.00
23996;BME280;12207;50.076;8.848;2022-10-22T02:25:28;99689.38;;;14.18;100.00
23996;BME280;12207;50.076;8.848;2022-10-22T02:27:58;99697.31;;;14.26;100.00
23996;BME280;12207;50.076;8.848;2022-10-22T02:30:27;99698.25;;;14.28;100.00
23996;BME280;12207;50.076;8.848;2022-10-22T02:35:35;99711.00;;;14.26;100.00
23996;BME280;12207;50.076;8.848;2022-10-22T02:38:04;99706.72;;;14.25;100.00
23996;BME280;12207;50.076;8.848;2022-10-22T02:40:31;99708.78;;;14.39;100.00
23996;BME280;12207;50.076;8.848;2022-10-22T02:42:58;99710.56;;;14.41;100.00
23996;BME280;12207;50.076;8.848;2022-10-22T02:45:25;99716.56;;;14.40;100.00
23996;BME280;12207;50.076;8.848;2022-10-22T02:47:51;99724.09;;;14.35;100.00
23996;BME280;12207;50.076;8.848;2022-10-22T02:50:18;99718.88;;;14.32;100.00
23996;BME280;12207;50.076;8.848;2022-10-22T02:52:44;99721.53;;;14.35;100.00
23996;BME280;12207;50.076;8.848;2022-10-22T02:55:11;99720.75;;;14.38;100.00
23996;BME280;12207;50.076;8.848;2022-10-22T02:57:37;99709.53;;;14.34;100.00
23996;BME280;12207;50.076;8.848;2022-10-22T03:00:05;99711.25;;;14.34;100.00
23996;BME280;12207;50.076;8.848;2022-10-22T03:02:31;99705.88;;;14.26;100.00
23996;BME280;12207;50.076;8.848;2022-10-22T03:04:58;99707.34;;;14.18;100.00
23996;BME280;12207;50.076;8.848;2022-10-22T03:07:24;99714.34;;;14.24;100.00
23996;BME280;12207;50.076;8.848;2022-10-22T03:09:51;99715.91;;;14.19;100.00
23996;BME280;12207;50.076;8.848;2022-10-22T03:12:17;99718.56;;;14.22;100.00
23996;BME280;12207;50.076;8.848;2022-10-22T03:14:44;99726.31;;;14.23;100.00
23996;BME280;12207;50.076;8.848;2022-10-22T03:17:10;99730.34;;;14.13;100.00
23996;BME280;12207;50.076;8.848;2022-10-22T03:19:37;99739.66;;;14.10;100.00
23996;BME280;12207;50.076;8.848;2022-10-22T03:22:25;99742.84;;;14.03;100.00
23996;BME280;12207;50.076;8.848;2022-10-22T03:24:52;99748.81;;;14.02;100.00
23996;BME280;12207;50.076;8.848;2022-10-22T03:27:19;99760.56;;;13.95;100.00
23996;BME280;12207;50.076;8.848;2022-10-22T03:29:47;99762.41;;;13.99;100.00
23996;BME280;12207;50.076;8.848;2022-10-22T03:32:15;99751.09;;;13.93;100.00
23996;BME280;12207;50.076;8.848;2022-10-22T03:34:41;99750.94;;;13.88;100.00
23996;BME280;12207;50.076;8.848;2022-10-22T03:37:08;99747.41;;;13.84;100.00
23996;BME280;12207;50.076;8.848;2022-10-22T03:39:35;99748.53;;;13.93;100.00
23996;BME280;12207;50.076;8.848;2022-10-22T03:42:02;99769.13;;;13.96;100.00
23996;BME280;12207;50.076;8.848;2022-10-22T03:44:29;99767.28;;;13.91;100.00
23996;BME280;12207;50.076;8.848;2022-10-22T03:46:56;99767.34;;;13.93;100.00
23996;BME280;12207;50.076;8.848;2022-10-22T03:49:22;99778.56;;;13.97;100.00
23996;BME280;12207;50.076;8.848;2022-10-22T03:51:49;99775.81;;;13.90;100.00
23996;BME280;12207;50.076;8.848;2022-10-22T03:54:15;99774.09;;;13.89;100.00
23996;BME280;12207;50.076;8.848;2022-10-22T03:56:42;99783.56;;;13.92;100.00
23996;BME280;12207;50.076;8.848;2022-10-22T03:59:08;99792.25;;;13.97;100.00
23996;BME280;12207;50.076;8.848;2022-10-22T04:01:35;99791.22;;;13.90;100.00
23996;BME280;12207;50.076;8.848;2022-10-22T04:04:01;99785.13;;;13.87;100.00
23996;BME280;12207;50.076;8.848;2022-10-22T04:06:28;99788.47;;;13.86;100.00
23996;BME280;12207;50.076;8.848;2022-10-22T04:08:55;99793.72;;;13.89;100.00
23996;BME280;12207;50.076;8.848;2022-10-22T04:11:21;99797.06;;;13.86;100.00
23996;BME280;12207;50.076;8.848;2022-10-22T04:13:48;99809.22;;;13.92;100.00
23996;BME280;12207;50.076;8.848;2022-10-22T04:16:16;99814.47;;;13.95;100.00
23996;BME280;12207;50.076;8.848;2022-10-22T04:18:43;99814.38;;;13.94;100.00
23996;BME280;12207;50.076;8.848;2022-10-22T04:21:10;99810.88;;;13.90;100.00
23996;BME280;12207;50.076;8.848;2022-10-22T04:23:38;99811.56;;;13.86;100.00
23996;BME280;12207;50.076;8.848;2022-10-22T04:26:05;99807.38;;;13.88;100.00
23996;BME280;12207;50.076;8.848;2022-10-22T04:28:33;99813.56;;;13.95;100.00
23996;BME280;12207;50.076;8.848;2022-10-22T04:30:59;99809.94;;;13.88;100.00
23996;BME280;12207;50.076;8.848;2022-10-22T04:33:26;99817.81;;;13.94;100.00
23996;BME280;12207;50.076;8.848;2022-10-22T04:35:52;99824.00;;;14.01;100.00
23996;BME280;12207;50.076;8.848;2022-10-22T04:38:19;99823.22;;;14.03;100.00
23996;BME280;12207;50.076;8.848;2022-10-22T04:40:45;99826.81;;;14.08;100.00
23996;BME280;12207;50.076;8.848;2022-10-22T04:43:12;99816.38;;;14.02;100.00
23996;BME280;12207;50.076;8.848;2022-10-22T04:45:38;99828.34;;;14.02;100.00
23996;BME280;12207;50.076;8.848;2022-10-22T04:48:05;99819.97;;;14.07;100.00
23996;BME280;12207;50.076;8.848;2022-10-22T04:50:31;99826.53;;;13.99;100.00
23996;BME280;12207;50.076;8.848;2022-10-22T04:52:58;99821.34;;;13.98;100.00
23996;BME280;12207;50.076;8.848;2022-10-22T04:55:24;99815.31;;;13.96;100.00
23996;BME280;12207;50.076;8.848;2022-10-22T04:57:51;99816.28;;;13.99;100.00
23996;BME280;12207;50.076;8.848;2022-10-22T05:00:18;99816.28;;;13.99;100.00
23996;BME280;12207;50.076;8.848;2022-10-22T05:02:47;99822.19;;;13.97;100.00
23996;BME280;12207;50.076;8.848;2022-10-22T05:05:14;99829.94;;;13.98;100.00
23996;BME280;12207;50.076;8.848;2022-10-22T05:07:40;99826.63;;;14.02;100.00
23996;BME280;12207;50.076;8.848;2022-10-22T05:10:07;99827.47;;;14.01;100.00
23996;BME280;12207;50.076;8.848;2022-10-22T05:12:33;99825.72;;;14.00;100.00
23996;BME280;12207;50.076;8.848;2022-10-22T05:15:00;99823.97;;;13.99;100.00
23996;BME280;12207;50.076;8.848;2022-10-22T05:17:27;99826.34;;;13.93;100.00
23996;BME280;12207;50.076;8.848;2022-10-22T05:19:53;99828.09;;;13.94;100.00
23996;BME280;12207;50.076;8.848;2022-10-22T05:22:20;99826.44;;;13.96;100.00
23996;BME280;12207;50.076;8.848;2022-10-22T05:24:46;99836.63;;;13.93;100.00
23996;BME280;12207;50.076;8.848;2022-10-22T05:27:14;99852.00;;;13.93;100.00
23996;BME280;12207;50.076;8.848;2022-10-22T05:29:40;99846.09;;;13.96;100.00
23996;BME280;12207;50.076;8.848;2022-10-22T05:32:07;99844.31;;;13.93;100.00
23996;BME280;12207;50.076;8.848;2022-10-22T05:34:33;99854.59;;;13.95;100.00
23996;BME280;12207;50.076;8.848;2022-10-22T05:37:01;99856.41;;;13.97;100.00
23996;BME280;12207;50.076;8.848;2022-10-22T05:39:27;99865.97;;;14.01;100.00
23996;BME280;12207;50.076;8.848;2022-10-22T05:41:54;99853.94;;;14.00;100.00
23996;BME280;12207;50.076;8.848;2022-10-22T05:44:20;99856.41;;;13.97;100.00
23996;BME280;12207;50.076;8.848;2022-10-22T05:46:47;99875.22;;;13.98;100.00
23996;BME280;12207;50.076;8.848;2022-10-22T05:49:14;99866.72;;;13.99;100.00
23996;BME280;12207;50.076;8.848;2022-10-22T05:51:41;99872.66;;;13.98;100.00
23996;BME280;12207;50.076;8.848;2022-10-22T05:54:07;99874.34;;;13.97;100.00
23996;BME280;12207;50.076;8.848;2022-10-22T05:56:36;99877.75;;;13.96;100.00
23996;BME280;12207;50.076;8.848;2022-10-22T05:59:03;99886.31;;;13.97;100.00
23996;BME280;12207;50.076;8.848;2022-10-22T06:01:30;99876.78;;;13.93;100.00
23996;BME280;12207;50.076;8.848;2022-10-22T06:03:58;99884.31;;;13.88;100.00
23996;BME280;12207;50.076;8.848;2022-10-22T06:06:29;99884.50;;;13.93;100.00
23996;BME280;12207;50.076;8.848;2022-10-22T06:09:02;99889.66;;;13.94;100.00
23996;BME280;12207;50.076;8.848;2022-10-22T06:11:30;99893.06;;;13.93;100.00
23996;BME280;12207;50.076;8.848;2022-10-22T06:13:56;99898.09;;;13.90;100.00
23996;BME280;12207;50.076;8.848;2022-10-22T06:16:23;99903.31;;;13.93;100.00
23996;BME280;12207;50.076;8.848;2022-10-22T06:18:49;99914.53;;;13.97;100.00
23996;BME280;12207;50.076;8.848;2022-10-22T06:21:16;99916.19;;;13.95;100.00
23996;BME280;12207;50.076;8.848;2022-10-22T06:23:42;99913.59;;;13.95;100.00
23996;BME280;12207;50.076;8.848;2022-10-22T06:26:09;99917.28;;;14.01;100.00
23996;BME280;12207;50.076;8.848;2022-10-22T06:28:36;99922.31;;;13.98;100.00
23996;BME280;12207;50.076;8.848;2022-10-22T06:31:03;99920.50;;;13.96;100.00
23996;BME280;12207;50.076;8.848;2022-10-22T06:33:30;99920.63;;;14.00;100.00
23996;BME280;12207;50.076;8.848;2022-10-22T06:36:17;99919.78;;;14.00;100.00
23996;BME280;12207;50.076;8.848;2022-10-22T06:38:44;99923.31;;;14.03;100.00
23996;BME280;12207;50.076;8.848;2022-10-22T06:41:14;99926.72;;;14.02;100.00
23996;BME280;12207;50.076;8.848;2022-10-22T06:43:41;99921.47;;;13.99;100.00
23996;BME280;12207;50.076;8.848;2022-10-22T06:46:10;99929.72;;;13.90;100.00
23996;BME280;12207;50.076;8.848;2022-10-22T06:48:37;99934.00;;;13.90;100.00
23996;BME280;12207;50.076;8.848;2022-10-22T06:51:07;99933.22;;;13.93;100.00
23996;BME280;12207;50.076;8.848;2022-10-22T06:53:34;99942.72;;;13.95;100.00
23996;BME280;12207;50.076;8.848;2022-10-22T06:56:08;99939.13;;;13.90;100.00
23996;BME280;12207;50.076;8.848;2022-10-22T06:58:34;99945.22;;;13.94;100.00
23996;BME280;12207;50.076;8.848;2022-10-22T07:01:05;99953.00;;;13.95;100.00
23996;BME280;12207;50.076;8.848;2022-10-22T07:03:32;99955.13;;;14.08;100.00
23996;BME280;12207;50.076;8.848;2022-10-22T07:05:59;99957.75;;;14.10;100.00
23996;BME280;12207;50.076;8.848;2022-10-22T07:08:26;99954.59;;;14.19;100.00
23996;BME280;12207;50.076;8.848;2022-10-22T07:10:53;99967.38;;;14.43;100.00
23996;BME280;12207;50.076;8.848;2022-10-22T07:13:19;99966.56;;;14.71;100.00
23996;BME280;12207;50.076;8.848;2022-10-22T07:15:51;99969.88;;;14.95;100.00
23996;BME280;12207;50.076;8.848;2022-10-22T07:18:17;99972.78;;;15.06;100.00
23996;BME280;12207;50.076;8.848;2022-10-22T07:20:44;99985.16;;;15.19;100.00
23996;BME280;12207;50.076;8.848;2022-10-22T07:23:10;99995.19;;;15.40;100.00
23996;BME280;12207;50.076;8.848;2022-10-22T07:25:37;99997.38;;;15.57;100.00
23996;BME280;12207;50.076;8.848;2022-10-22T07:28:03;100000.25;;;15.67;100.00
23996;BME280;12207;50.076;8.848;2022-10-22T07:30:30;100004.94;;;15.82;100.00
23996;BME280;12207;50.076;8.848;2022-10-22T07:32:56;100011.47;;;16.01;100.00
23996;BME280;12207;50.076;8.848;2022-10-22T07:35:23;100014.47;;;16.18;100.00
23996;BME280;12207;50.076;8.848;2022-10-22T07:37:49;100017.47;;;16.35;100.00
23996;BME280;12207;50.076;8.848;2022-10-22T07:40:16;100019.81;;;16.60;100.00
23996;BME280;12207;50.076;8.848;2022-10-22T07:42:42;100034.31;;;16.90;100.00
23996;BME280;12207;50.076;8.848;2022-10-22T07:45:09;100024.94;;;16.94;100.00
23996;BME280;12207;50.076;8.848;2022-10-22T07:47:35;100025.94;;;17.00;100.00
23996;BME280;12207;50.076;8.848;2022-10-22T07:50:02;100025.19;;;17.04;100.00
23996;BME280;12207;50.076;8.848;2022-10-22T07:52:29;100030.00;;;17.28;100.00
23996;BME280;12207;50.076;8.848;2022-10-22T07:54:56;100045.13;;;17.52;100.00
23996;BME280;12207;50.076;8.848;2022-10-22T07:57:22;100044.44;;;17.61;100.00
23996;BME280;12207;50.076;8.848;2022-10-22T07:59:49;100057.13;;;17.93;100.00
23996;BME280;12207;50.076;8.848;2022-10-22T08:02:15;100050.06;;;17.83;100.00
23996;BME280;12207;50.076;8.848;2022-10-22T08:04:42;100050.56;;;18.10;100.00
23996;BME280;12207;50.076;8.848;2022-10-22T08:07:09;100058.94;;;17.97;100.00
23996;BME280;12207;50.076;8.848;2022-10-22T08:09:35;100055.03;;;18.17;100.00
23996;BME280;12207;50.076;8.848;2022-10-22T08:12:02;100058.75;;;18.35;100.00
23996;BME280;12207;50.076;8.848;2022-10-22T08:14:28;100059.28;;;18.65;100.00
23996;BME280;12207;50.076;8.848;2022-10-22T08:16:56;100051.50;;;18.64;100.00
23996;BME280;12207;50.076;8.848;2022-10-22T08:19:22;100055.78;;;18.13;100.00
23996;BME280;12207;50.076;8.848;2022-10-22T08:21:49;100051.94;;;18.38;100.00
23996;BME280;12207;50.076;8.848;2022-10-22T08:24:15;100057.53;;;18.63;100.00
23996;BME280;12207;50.076;8.848;2022-10-22T08:26:42;100049.91;;;18.72;100.00
23996;BME280;12207;50.076;8.848;2022-10-22T08:29:08;100059.56;;;18.81;100.00
23996;BME280;12207;50.076;8.848;2022-10-22T08:31:36;100062.94;;;18.77;100.00
23996;BME280;12207;50.076;8.848;2022-10-22T08:34:03;100063.34;;;19.03;100.00
23996;BME280;12207;50.076;8.848;2022-10-22T08:36:30;100064.75;;;19.42;100.00
23996;BME280;12207;50.076;8.848;2022-10-22T08:38:57;100066.69;;;19.59;100.00
23996;BME280;12207;50.076;8.848;2022-10-22T08:41:23;100069.50;;;19.75;100.00
23996;BME280;12207;50.076;8.848;2022-10-22T08:46:29;100077.22;;;19.72;100.00
23996;BME280;12207;50.076;8.848;2022-10-22T08:48:59;100076.75;;;20.03;98.67
23996;BME280;12207;50.076;8.848;2022-10-22T08:51:28;100072.22;;;19.84;96.63
23996;BME280;12207;50.076;8.848;2022-10-22T08:56:29;100081.59;;;19.13;99.95
23996;BME280;12207;50.076;8.848;2022-10-22T08:59:19;100080.63;;;19.04;97.93
23996;BME280;12207;50.076;8.848;2022-10-22T09:01:46;100078.13;;;19.10;100.00
23996;BME280;12207;50.076;8.848;2022-10-22T09:06:54;100082.81;;;19.39;99.07
23996;BME280;12207;50.076;8.848;2022-10-22T09:09:22;100095.66;;;19.31;97.79
23996;BME280;12207;50.076;8.848;2022-10-22T09:11:52;100095.44;;;19.78;94.85
23996;BME280;12207;50.076;8.848;2022-10-22T09:14:20;100096.28;;;19.75;94.13
23996;BME280;12207;50.076;8.848;2022-10-22T09:24:31;100097.41;;;19.97;91.99
23996;BME280;12207;50.076;8.848;2022-10-22T09:26:59;100107.69;;;19.93;96.45
23996;BME280;12207;50.076;8.848;2022-10-22T09:29:32;100098.44;;;20.12;94.05
23996;BME280;12207;50.076;8.848;2022-10-22T09:31:59;100101.09;;;20.19;91.39
23996;BME280;12207;50.076;8.848;2022-10-22T09:34:25;100107.19;;;20.23;92.65
23996;BME280;12207;50.076;8.848;2022-10-22T09:36:57;100110.38;;;20.84;89.70
23996;BME280;12207;50.076;8.848;2022-10-22T09:39:25;100109.59;;;20.91;92.18
23996;BME280;12207;50.076;8.848;2022-10-22T09:41:52;100115.88;;;21.24;90.38
23996;BME280;12207;50.076;8.848;2022-10-22T09:44:19;100121.91;;;21.23;91.60
23996;BME280;12207;50.076;8.848;2022-10-22T09:46:46;100121.72;;;20.96;88.76
23996;BME280;12207;50.076;8.848;2022-10-22T09:49:13;100116.47;;;20.89;93.28
23996;BME280;12207;50.076;8.848;2022-10-22T09:51:50;100119.78;;;19.92;92.02
23996;BME280;12207;50.076;8.848;2022-10-22T09:57:35;100121.09;;;20.34;93.42
23996;BME280;12207;50.076;8.848;2022-10-22T09:59:37;100121.75;;;21.02;89.83
23996;BME280;12207;50.076;8.848;2022-10-22T10:02:10;100131.00;;;20.69;89.71
23996;BME280;12207;50.076;8.848;2022-10-22T10:04:44;100140.47;;;20.65;90.57
23996;BME280;12207;50.076;8.848;2022-10-22T10:07:16;100139.81;;;20.07;92.83
23996;BME280;12207;50.076;8.848;2022-10-22T10:09:42;100139.03;;;20.13;96.24
23996;BME280;12207;50.076;8.848;2022-10-22T10:17:59;100131.28;;;21.04;93.43
23996;BME280;12207;50.076;8.848;2022-10-22T10:28:17;100127.03;;;21.14;88.19
23996;BME280;12207;50.076;8.848;2022-10-22T10:31:32;100125.53;;;21.47;86.69
23996;BME280;12207;50.076;8.848;2022-10-22T10:33:37;100131.66;;;21.55;86.97
23996;BME280;12207;50.076;8.848;2022-10-22T10:36:11;100129.97;;;21.60;90.08
23996;BME280;12207;50.076;8.848;2022-10-22T10:38:59;100131.72;;;21.63;87.71
23996;BME280;12207;50.076;8.848;2022-10-22T10:41:37;100141.25;;;21.70;87.11
23996;BME280;12207;50.076;8.848;2022-10-22T10:49:19;100136.19;;;21.99;83.57
23996;BME280;12207;50.076;8.848;2022-10-22T10:51:57;100130.75;;;21.47;88.18
23996;BME280;12207;50.076;8.848;2022-10-22T10:54:40;100123.22;;;21.99;86.59
23996;BME280;12207;50.076;8.848;2022-10-22T10:59:44;100116.03;;;21.50;86.13
23996;BME280;12207;50.076;8.848;2022-10-22T11:07:13;100132.38;;;19.65;97.09
23996;BME280;12207;50.076;8.848;2022-10-22T11:09:46;100129.91;;;19.74;97.92
23996;BME280;12207;50.076;8.848;2022-10-22T11:12:17;100124.03;;;19.86;98.87
23996;BME280;12207;50.076;8.848;2022-10-22T11:17:38;100123.22;;;19.91;98.52
23996;BME280;12207;50.076;8.848;2022-10-22T11:20:16;100125.69;;;19.79;98.28
23996;BME280;12207;50.076;8.848;2022-10-22T11:22:47;100116.16;;;19.78;100.00
23996;BME280;12207;50.076;8.848;2022-10-22T11:25:17;100115.97;;;19.64;98.68
23996;BME280;12207;50.076;8.848;2022-10-22T11:32:40;100120.72;;;19.35;100.00
23996;BME280;12207;50.076;8.848;2022-10-22T11:35:08;100113.88;;;19.37;100.00
23996;BME280;12207;50.076;8.848;2022-10-22T11:37:37;100117.97;;;19.23;100.00
23996;BME280;12207;50.076;8.848;2022-10-22T11:40:13;100120.56;;;19.23;100.00
23996;BME280;12207;50.076;8.848;2022-10-22T11:42:44;100125.72;;;19.24;99.53
23996;BME280;12207;50.076;8.848;2022-10-22T11:50:21;100108.34;;;19.75;99.40
23996;BME280;12207;50.076;8.848;2022-10-22T11:52:57;100107.16;;;20.20;96.42
23996;BME280;12207;50.076;8.848;2022-10-22T11:55:32;100116.03;;;20.45;95.13
23996;BME280;12207;50.076;8.848;2022-10-22T11:58:01;100106.25;;;20.19;92.80
23996;BME280;12207;50.076;8.848;2022-10-22T12:03:14;100105.81;;;19.79;98.46
23996;BME280;12207;50.076;8.848;2022-10-22T12:05:41;100114.47;;;19.80;97.07
23996;BME280;12207;50.076;8.848;2022-10-22T12:10:47;100108.59;;;19.31;100.00
23996;BME280;12207;50.076;8.848;2022-10-22T12:13:21;100105.44;;;18.94;100.00
23996;BME280;12207;50.076;8.848;2022-10-22T12:15:52;100103.63;;;18.88;100.00
23996;BME280;12207;50.076;8.848;2022-10-22T12:18:19;100110.13;;;19.17;100.00
23996;BME280;12207;50.076;8.848;2022-10-22T12:20:49;100099.28;;;19.44;100.00
23996;BME280;12207;50.076;8.848;2022-10-22T12:23:16;100102.16;;;19.64;100.00
23996;BME280;12207;50.076;8.848;2022-10-22T12:25:43;100109.16;;;19.71;100.00
23996;BME280;12207;50.076;8.848;2022-10-22T12:28:10;100101.53;;;19.83;100.00
23996;BME280;12207;50.076;8.848;2022-10-22T12:30:37;100105.13;;;19.94;100.00
23996;BME280;12207;50.076;8.848;2022-10-22T12:33:05;100094.13;;;20.12;100.00
23996;BME280;12207;50.076;8.848;2022-10-22T12:35:32;100098.59;;;20.27;100.00
23996;BME280;12207;50.076;8.848;2022-10-22T12:38:00;100089.91;;;20.25;97.32
23996;BME280;12207;50.076;8.848;2022-10-22T12:40:28;100094.03;;;20.08;97.44
23996;BME280;12207;50.076;8.848;2022-10-22T12:42:56;100096.59;;;20.04;100.00
23996;BME280;12207;50.076;8.848;2022-10-22T12:45:27;100099.91;;;19.91;100.00
23996;BME280;12207;50.076;8.848;2022-10-22T12:48:02;100093.56;;;19.65;99.80
23996;BME280;12207;50.076;8.848;2022-10-22T12:50:39;100092.81;;;19.75;100.00
23996;BME280;12207;50.076;8.848;2022-10-22T12:53:14;100101.50;;;19.80;98.92
23996;BME280;12207;50.076;8.848;2022-10-22T12:55:43;100099.84;;;19.87;99.30
23996;BME280;12207;50.076;8.848;2022-10-22T12:58:11;100104.03;;;19.74;97.67
23996;BME280;12207;50.076;8.848;2022-10-22T13:00:41;100100.25;;;19.52;98.90
23996;BME280;12207;50.076;8.848;2022-10-22T13:03:09;100093.50;;;19.63;100.00
23996;BME280;12207;50.076;8.848;2022-10-22T13:05:46;100092.56;;;19.59;98.98
23996;BME280;12207;50.076;8.848;2022-10-22T13:08:16;100095.06;;;19.50;99.51
23996;BME280;12207;50.076;8.848;2022-10-22T13:10:50;100097.72;;;19.56;99.61
23996;BME280;12207;50.076;8.848;2022-10-22T13:16:20;100091.03;;;19.71;100.00
23996;BME280;12207;50.076;8.848;2022-10-22T13:18:49;100094.63;;;19.82;98.65
23996;BME280;12207;50.076;8.848;2022-10-22T13:23:57;100089.78;;;20.11;98.22
23996;BME280;12207;50.076;8.848;2022-10-22T13:26:24;100092.50;;;20.23;95.44
23996;BME280;12207;50.076;8.848;2022-10-22T13:28:55;100081.19;;;20.15;97.57
23996;BME280;12207;50.076;8.848;2022-10-22T13:31:23;100082.84;;;20.10;97.80
23996;BME280;12207;50.076;8.848;2022-10-22T13:33:51;100089.09;;;20.26;95.25
23996;BME280;12207;50.076;8.848;2022-10-22T13:36:19;100088.13;;;20.19;94.23
23996;BME280;12207;50.076;8.848;2022-10-22T13:38:45;100087.47;;;20.39;96.15
23996;BME280;12207;50.076;8.848;2022-10-22T13:41:19;100098.72;;;20.39;94.80
23996;BME280;12207;50.076;8.848;2022-10-22T13:43:46;100099.44;;;20.26;93.48
23996;BME280;12207;50.076;8.848;2022-10-22T13:46:13;100101.91;;;20.14;93.61
23996;BME280;12207;50.076;8.848;2022-10-22T13:48:39;100089.13;;;20.31;96.58
23996;BME280;12207;50.076;8.848;2022-10-22T13:51:10;100097.78;;;20.34;93.93
23996;BME280;12207;50.076;8.848;2022-10-22T13:53:39;100092.69;;;20.42;93.99
23996;BME280;12207;50.076;8.848;2022-10-22T13:56:05;100089.38;;;20.55;95.71
23996;BME280;12207;50.076;8.848;2022-10-22T13:58:32;100094.47;;;20.49;94.98
23996;BME280;12207;50.076;8.848;2022-10-22T14:00:58;100085.81;;;20.48;91.78
23996;BME280;12207;50.076;8.848;2022-10-22T14:03:29;100105.59;;;20.37;93.06
23996;BME280;12207;50.076;8.848;2022-10-22T14:05:56;100096.88;;;20.26;92.90
23996;BME280;12207;50.076;8.848;2022-10-22T14:08:23;100091.59;;;20.17;92.61
23996;BME280;12207;50.076;8.848;2022-10-22T14:10:51;100089.00;;;20.17;94.43
23996;BME280;12207;50.076;8.848;2022-10-22T14:13:18;100092.19;;;19.94;95.72
23996;BME280;12207;50.076;8.848;2022-10-22T14:15:45;100094.84;;;19.99;92.63
23996;BME280;12207;50.076;8.848;2022-10-22T14:18:20;100090.47;;;19.93;93.59
23996;BME280;12207;50.076;8.848;2022-10-22T14:20:51;100091.25;;;19.89;91.89
23996;BME280;12207;50.076;8.848;2022-10-22T14:23:19;100093.69;;;19.75;93.75
23996;BME280;12207;50.076;8.848;2022-10-22T14:25:46;100085.84;;;19.69;96.70
23996;BME280;12207;50.076;8.848;2022-10-22T14:28:13;100092.75;;;19.72;94.56
23996;BME280;12207;50.076;8.848;2022-10-22T14:30:40;100096.25;;;19.72;95.55